sensor_id;sensor_type;location;lat;lon;timestamp;pressure;altitude;pressure_sealevel;temperature;humidity
64610;BME280;51019;46.090;6.350;2024-03-22T00:02:10;61272.97;;;10.26;100.00
64610;BME280;51019;46.090;6.350;2024-03-22T00:04:38;61326.13;;;10.78;100.00
64610;BME280;51019;46.090;6.350;2024-03-22T00:07:04;61359.22;;;11.05;100.00
64610;BME280;51019;46.090;6.350;2024-03-22T00:09:32;61349.19;;;11.00;100.00
64610;BME280;51019;46.090;6.350;2024-03-22T00:11:58;61386.63;;;11.33;100.00
64610;BME280;51019;46.090;6.350;2024-03-22T00:14:25;61371.16;;;11.21;100.00
64610;BME280;51019;46.090;6.350;2024-03-22T00:16:52;61337.28;;;10.86;100.00
64610;BME280;51019;46.090;6.350;2024-03-22T00:19:21;61360.44;;;11.11;100.00
64610;BME280;51019;46.090;6.350;2024-03-22T00:21:47;61356.59;;;11.05;100.00
64610;BME280;51019;46.090;6.350;2024-03-22T00:24:14;61331.41;;;10.81;100.00
64610;BME280;51019;46.090;6.350;2024-03-22T00:26:40;61329.94;;;10.84;100.00
64610;BME280;51019;46.090;6.350;2024-03-22T00:29:08;61308.94;;;10.62;100.00
64610;BME280;51019;46.090;6.350;2024-03-22T00:31:34;61297.69;;;10.51;100.00
64610;BME280;51019;46.090;6.350;2024-03-22T00:34:01;61284.22;;;10.36;100.00
64610;BME280;51019;46.090;6.350;2024-03-22T00:36:30;61321.28;;;10.74;100.00
64610;BME280;51019;46.090;6.350;2024-03-22T00:38:58;61306.19;;;10.57;100.00
64610;BME280;51019;46.090;6.350;2024-03-22T00:41:24;61336.94;;;10.91;100.00
64610;BME280;51019;46.090;6.350;2024-03-22T00:43:53;61364.66;;;11.12;100.00
64610;BME280;51019;46.090;6.350;2024-03-22T00:46:19;61292.88;;;10.47;100.00
64610;BME280;51019;46.090;6.350;2024-03-22T00:48:46;61248.38;;;10.05;100.00
64610;BME280;51019;46.090;6.350;2024-03-22T00:51:12;61276.72;;;10.29;100.00
64610;BME280;51019;46.090;6.350;2024-03-22T00:53:43;61289.66;;;10.44;100.00
64610;BME280;51019;46.090;6.350;2024-03-22T00:56:09;61329.34;;;10.81;100.00
64610;BME280;51019;46.090;6.350;2024-03-22T00:58:38;61321.81;;;10.74;100.00
64610;BME280;51019;46.090;6.350;2024-03-22T01:01:04;61309.50;;;10.63;100.00
64610;BME280;51019;46.090;6.350;2024-03-22T01:03:32;61229.00;;;9.84;100.00
64610;BME280;51019;46.090;6.350;2024-03-22T01:05:58;61293.88;;;10.45;100.00
64610;BME280;51019;46.090;6.350;2024-03-22T01:08:26;61287.50;;;10.42;100.00
64610;BME280;51019;46.090;6.350;2024-03-22T01:10:54;61294.94;;;10.46;100.00
64610;BME280;51019;46.090;6.350;2024-03-22T01:13:22;61289.03;;;10.41;100.00
64610;BME280;51019;46.090;6.350;2024-03-22T01:15:52;61287.44;;;10.39;100.00
64610;BME280;51019;46.090;6.350;2024-03-22T01:18:18;61284.28;;;10.39;100.00
64610;BME280;51019;46.090;6.350;2024-03-22T01:20:45;61267.06;;;10.20;100.00
64610;BME280;51019;46.090;6.350;2024-03-22T01:23:11;61258.38;;;10.09;100.00
64610;BME280;51019;46.090;6.350;2024-03-22T01:25:38;61179.28;;;9.39;100.00
64610;BME280;51019;46.090;6.350;2024-03-22T01:28:06;61206.50;;;9.63;100.00
64610;BME280;51019;46.090;6.350;2024-03-22T01:30:33;61235.88;;;9.88;100.00
64610;BME280;51019;46.090;6.350;2024-03-22T01:33:01;61236.50;;;9.91;100.00
64610;BME280;51019;46.090;6.350;2024-03-22T01:35:28;61221.06;;;9.79;100.00
64610;BME280;51019;46.090;6.350;2024-03-22T01:37:54;61216.75;;;9.75;100.00
64610;BME280;51019;46.090;6.350;2024-03-22T01:40:21;61197.41;;;9.54;100.00
64610;BME280;51019;46.090;6.350;2024-03-22T01:42:46;61175.97;;;9.34;100.00
64610;BME280;51019;46.090;6.350;2024-03-22T01:45:15;61131.09;;;8.94;100.00
64610;BME280;51019;46.090;6.350;2024-03-22T01:47:41;61184.00;;;9.41;100.00
64610;BME280;51019;46.090;6.350;2024-03-22T01:50:09;61176.53;;;9.34;100.00
64610;BME280;51019;46.090;6.350;2024-03-22T01:52:36;61171.16;;;9.29;100.00
64610;BME280;51019;46.090;6.350;2024-03-22T01:55:04;61195.44;;;9.57;100.00
64610;BME280;51019;46.090;6.350;2024-03-22T01:57:32;61157.84;;;9.19;100.00
64610;BME280;51019;46.090;6.350;2024-03-22T01:59:59;61171.25;;;9.32;100.00
64610;BME280;51019;46.090;6.350;2024-03-22T02:02:27;61173.66;;;9.27;100.00
64610;BME280;51019;46.090;6.350;2024-03-22T02:04:54;61178.28;;;9.41;100.00
64610;BME280;51019;46.090;6.350;2024-03-22T02:07:21;61176.53;;;9.34;100.00
64610;BME280;51019;46.090;6.350;2024-03-22T02:09:49;61101.66;;;8.66;100.00
64610;BME280;51019;46.090;6.350;2024-03-22T02:12:15;61160.53;;;9.22;100.00
64610;BME280;51019;46.090;6.350;2024-03-22T02:14:42;61122.44;;;8.83;100.00
64610;BME280;51019;46.090;6.350;2024-03-22T02:17:08;61149.28;;;9.11;100.00
64610;BME280;51019;46.090;6.350;2024-03-22T02:19:37;61109.16;;;8.73;100.00
64610;BME280;51019;46.090;6.350;2024-03-22T02:22:03;61029.44;;;7.97;100.00
64610;BME280;51019;46.090;6.350;2024-03-22T02:24:32;61134.22;;;8.94;100.00
64610;BME280;51019;46.090;6.350;2024-03-22T02:26:58;61104.78;;;8.66;100.00
64610;BME280;51019;46.090;6.350;2024-03-22T02:29:25;61111.91;;;8.78;100.00
64610;BME280;51019;46.090;6.350;2024-03-22T02:31:51;61107.09;;;8.73;100.00
64610;BME280;51019;46.090;6.350;2024-03-22T02:34:20;61086.13;;;8.51;100.00
64610;BME280;51019;46.090;6.350;2024-03-22T02:36:46;61046.47;;;8.11;100.00
64610;BME280;51019;46.090;6.350;2024-03-22T02:39:13;61118.25;;;8.82;100.00
64610;BME280;51019;46.090;6.350;2024-03-22T02:41:41;61121.47;;;8.85;100.00
64610;BME280;51019;46.090;6.350;2024-03-22T02:44:09;61125.13;;;8.86;100.00
64610;BME280;51019;46.090;6.350;2024-03-22T02:46:35;61107.97;;;8.69;100.00
64610;BME280;51019;46.090;6.350;2024-03-22T02:49:03;61100.59;;;8.65;100.00
64610;BME280;51019;46.090;6.350;2024-03-22T02:51:31;61094.69;;;8.59;100.00
64610;BME280;51019;46.090;6.350;2024-03-22T02:54:00;61094.00;;;8.54;100.00
64610;BME280;51019;46.090;6.350;2024-03-22T02:56:27;61106.41;;;8.68;100.00
64610;BME280;51019;46.090;6.350;2024-03-22T02:58:57;61079.19;;;8.45;100.00
64610;BME280;51019;46.090;6.350;2024-03-22T03:01:23;61111.75;;;8.73;100.00
64610;BME280;51019;46.090;6.350;2024-03-22T03:03:50;61118.16;;;8.79;100.00
64610;BME280;51019;46.090;6.350;2024-03-22T03:06:16;61138.66;;;9.03;100.00
64610;BME280;51019;46.090;6.350;2024-03-22T03:08:45;61105.47;;;8.72;100.00
64610;BME280;51019;46.090;6.350;2024-03-22T03:11:11;61079.63;;;8.43;100.00
64610;BME280;51019;46.090;6.350;2024-03-22T03:13:39;61124.69;;;8.88;100.00
64610;BME280;51019;46.090;6.350;2024-03-22T03:16:08;61160.44;;;9.19;100.00
64610;BME280;51019;46.090;6.350;2024-03-22T03:18:36;61139.03;;;8.99;100.00
64610;BME280;51019;46.090;6.350;2024-03-22T03:21:02;61163.22;;;9.24;100.00
64610;BME280;51019;46.090;6.350;2024-03-22T03:23:29;61157.84;;;9.19;100.00
64610;BME280;51019;46.090;6.350;2024-03-22T03:25:56;61205.97;;;9.62;100.00
64610;BME280;51019;46.090;6.350;2024-03-22T03:28:25;61159.91;;;9.19;100.00
64610;BME280;51019;46.090;6.350;2024-03-22T03:30:52;61144.47;;;9.06;100.00
64610;BME280;51019;46.090;6.350;2024-03-22T03:33:21;61185.72;;;9.45;100.00
64610;BME280;51019;46.090;6.350;2024-03-22T03:35:47;61091.13;;;8.61;100.00
64610;BME280;51019;46.090;6.350;2024-03-22T03:38:16;61153.50;;;9.13;100.00
64610;BME280;51019;46.090;6.350;2024-03-22T03:40:42;61149.75;;;9.09;100.00
64610;BME280;51019;46.090;6.350;2024-03-22T03:43:11;61154.56;;;9.14;100.00
64610;BME280;51019;46.090;6.350;2024-03-22T03:45:37;61166.88;;;9.25;100.00
64610;BME280;51019;46.090;6.350;2024-03-22T03:48:05;61132.06;;;8.92;100.00
64610;BME280;51019;46.090;6.350;2024-03-22T03:50:33;61146.09;;;9.08;100.00
64610;BME280;51019;46.090;6.350;2024-03-22T03:53:01;61162.59;;;9.21;100.00
64610;BME280;51019;46.090;6.350;2024-03-22T03:55:29;61170.72;;;9.31;100.00
64610;BME280;51019;46.090;6.350;2024-03-22T03:57:56;61178.66;;;9.36;100.00
64610;BME280;51019;46.090;6.350;2024-03-22T04:00:22;61206.50;;;9.63;100.00
64610;BME280;51019;46.090;6.350;2024-03-22T04:02:49;61175.53;;;9.36;100.00
64610;BME280;51019;46.090;6.350;2024-03-22T04:05:15;61134.75;;;8.95;100.00
64610;BME280;51019;46.090;6.350;2024-03-22T04:07:47;61177.22;;;9.40;100.00
64610;BME280;51019;46.090;6.350;2024-03-22T04:10:13;61172.13;;;9.28;100.00
64610;BME280;51019;46.090;6.350;2024-03-22T04:12:40;61138.59;;;9.01;100.00
64610;BME280;51019;46.090;6.350;2024-03-22T04:15:08;61149.66;;;9.06;100.00
64610;BME280;51019;46.090;6.350;2024-03-22T04:17:35;61209.88;;;9.71;100.00
64610;BME280;51019;46.090;6.350;2024-03-22T04:20:02;61212.94;;;9.69;100.00
64610;BME280;51019;46.090;6.350;2024-03-22T04:22:31;61194.19;;;9.51;100.00
64610;BME280;51019;46.090;6.350;2024-03-22T04:25:00;61215.06;;;9.71;100.00
64610;BME280;51019;46.090;6.350;2024-03-22T04:27:28;61247.22;;;10.01;100.00
64610;BME280;51019;46.090;6.350;2024-03-22T04:29:54;61197.03;;;9.59;100.00
64610;BME280;51019;46.090;6.350;2024-03-22T04:32:22;61212.47;;;9.71;100.00
64610;BME280;51019;46.090;6.350;2024-03-22T04:34:48;61237.03;;;9.92;100.00
64610;BME280;51019;46.090;6.350;2024-03-22T04:37:16;61208.19;;;9.67;100.00
64610;BME280;51019;46.090;6.350;2024-03-22T04:39:46;61182.41;;;9.40;100.00
64610;BME280;51019;46.090;6.350;2024-03-22T04:42:15;61182.41;;;9.40;100.00
64610;BME280;51019;46.090;6.350;2024-03-22T04:44:43;61233.91;;;9.91;100.00
64610;BME280;51019;46.090;6.350;2024-03-22T04:47:12;61236.50;;;9.91;100.00
64610;BME280;51019;46.090;6.350;2024-03-22T04:49:38;61219.97;;;9.78;100.00
64610;BME280;51019;46.090;6.350;2024-03-22T04:52:06;61246.31;;;10.05;100.00
64610;BME280;51019;46.090;6.350;2024-03-22T04:54:32;61244.00;;;9.98;100.00
64610;BME280;51019;46.090;6.350;2024-03-22T04:57:00;61240.34;;;9.97;100.00
64610;BME280;51019;46.090;6.350;2024-03-22T04:59:29;61237.66;;;9.95;100.00
64610;BME280;51019;46.090;6.350;2024-03-22T05:01:57;61192.13;;;9.52;100.00
64610;BME280;51019;46.090;6.350;2024-03-22T05:04:24;61189.91;;;9.47;100.00
64610;BME280;51019;46.090;6.350;2024-03-22T05:06:52;61253.09;;;10.07;100.00
64610;BME280;51019;46.090;6.350;2024-03-22T05:09:18;61184.00;;;9.41;100.00
64610;BME280;51019;46.090;6.350;2024-03-22T05:11:46;61204.88;;;9.61;100.00
64610;BME280;51019;46.090;6.350;2024-03-22T05:14:16;61254.72;;;10.08;100.00
64610;BME280;51019;46.090;6.350;2024-03-22T05:16:44;61236.56;;;9.94;100.00
64610;BME280;51019;46.090;6.350;2024-03-22T05:19:12;61221.50;;;9.77;100.00
64610;BME280;51019;46.090;6.350;2024-03-22T05:21:37;61223.19;;;9.81;100.00
64610;BME280;51019;46.090;6.350;2024-03-22T05:24:05;61239.72;;;9.94;100.00
64610;BME280;51019;46.090;6.350;2024-03-22T05:26:31;61237.59;;;9.92;100.00
64610;BME280;51019;46.090;6.350;2024-03-22T05:29:02;61255.97;;;10.14;100.00
64610;BME280;51019;46.090;6.350;2024-03-22T05:31:29;61243.00;;;10.00;100.00
64610;BME280;51019;46.090;6.350;2024-03-22T05:33:59;61275.09;;;10.28;100.00
64610;BME280;51019;46.090;6.350;2024-03-22T05:36:25;61257.41;;;10.11;100.00
64610;BME280;51019;46.090;6.350;2024-03-22T05:38:55;61276.16;;;10.29;100.00
64610;BME280;51019;46.090;6.350;2024-03-22T05:41:21;61325.13;;;10.80;100.00
64610;BME280;51019;46.090;6.350;2024-03-22T05:43:53;61300.28;;;10.51;100.00
64610;BME280;51019;46.090;6.350;2024-03-22T05:46:20;61245.25;;;10.04;100.00
64610;BME280;51019;46.090;6.350;2024-03-22T05:48:48;61256.88;;;10.10;100.00
64610;BME280;51019;46.090;6.350;2024-03-22T05:51:17;61285.28;;;10.37;100.00
64610;BME280;51019;46.090;6.350;2024-03-22T05:53:45;61239.72;;;9.94;100.00
64610;BME280;51019;46.090;6.350;2024-03-22T05:56:11;61223.19;;;9.81;100.00
64610;BME280;51019;46.090;6.350;2024-03-22T05:58:38;61275.63;;;10.28;100.00
64610;BME280;51019;46.090;6.350;2024-03-22T06:01:05;61268.03;;;10.18;100.00
64610;BME280;51019;46.090;6.350;2024-03-22T06:03:32;61259.63;;;10.15;100.00
64610;BME280;51019;46.090;6.350;2024-03-22T06:05:59;61285.28;;;10.37;100.00
64610;BME280;51019;46.090;6.350;2024-03-22T06:08:28;61298.78;;;10.52;100.00
64610;BME280;51019;46.090;6.350;2024-03-22T06:10:58;61264.91;;;10.18;100.00
64610;BME280;51019;46.090;6.350;2024-03-22T06:13:25;61275.19;;;10.30;100.00
64610;BME280;51019;46.090;6.350;2024-03-22T06:15:52;61277.34;;;10.32;100.00
64610;BME280;51019;46.090;6.350;2024-03-22T06:18:19;61247.75;;;10.02;100.00
64610;BME280;51019;46.090;6.350;2024-03-22T06:20:46;61294.94;;;10.46;100.00
64610;BME280;51019;46.090;6.350;2024-03-22T06:23:12;61345.94;;;10.97;100.00
64610;BME280;51019;46.090;6.350;2024-03-22T06:25:53;61372.84;;;11.25;100.00
64610;BME280;51019;46.090;6.350;2024-03-22T06:28:19;61334.78;;;10.89;100.00
64610;BME280;51019;46.090;6.350;2024-03-22T06:30:48;61356.75;;;11.10;100.00
64610;BME280;51019;46.090;6.350;2024-03-22T06:33:14;61382.81;;;11.27;100.00
64610;BME280;51019;46.090;6.350;2024-03-22T06:35:42;61422.59;;;11.67;100.00
64610;BME280;51019;46.090;6.350;2024-03-22T06:38:08;61335.75;;;10.87;100.00
64610;BME280;51019;46.090;6.350;2024-03-22T06:40:37;61432.91;;;11.79;100.00
64610;BME280;51019;46.090;6.350;2024-03-22T06:43:05;61404.41;;;11.52;100.00
64610;BME280;51019;46.090;6.350;2024-03-22T06:45:34;61407.81;;;11.60;100.00
64610;BME280;51019;46.090;6.350;2024-03-22T06:48:00;61402.28;;;11.50;100.00
64610;BME280;51019;46.090;6.350;2024-03-22T06:50:28;61428.16;;;11.77;100.00
64610;BME280;51019;46.090;6.350;2024-03-22T06:52:55;61356.13;;;11.07;100.00
64610;BME280;51019;46.090;6.350;2024-03-22T06:55:22;61377.63;;;11.27;100.00
64610;BME280;51019;46.090;6.350;2024-03-22T06:57:50;61420.00;;;11.67;100.00
64610;BME280;51019;46.090;6.350;2024-03-22T07:00:21;61450.00;;;11.93;100.00
64610;BME280;51019;46.090;6.350;2024-03-22T07:02:47;61429.13;;;11.76;100.00
64610;BME280;51019;46.090;6.350;2024-03-22T07:05:15;61473.69;;;12.18;100.00
64610;BME280;51019;46.090;6.350;2024-03-22T07:07:45;61460.72;;;12.03;100.00
64610;BME280;51019;46.090;6.350;2024-03-22T07:10:12;61404.41;;;11.52;100.00
64610;BME280;51019;46.090;6.350;2024-03-22T07:12:38;61520.25;;;12.57;100.00
64610;BME280;51019;46.090;6.350;2024-03-22T07:15:07;61537.69;;;12.81;100.00
64610;BME280;51019;46.090;6.350;2024-03-22T07:17:36;61520.44;;;12.62;100.00
64610;BME280;51019;46.090;6.350;2024-03-22T07:20:04;61562.84;;;13.02;100.00
64610;BME280;51019;46.090;6.350;2024-03-22T07:22:33;61514.41;;;12.54;100.00
64610;BME280;51019;46.090;6.350;2024-03-22T07:25:00;61531.16;;;12.72;100.00
64610;BME280;51019;46.090;6.350;2024-03-22T07:27:25;61545.69;;;12.86;100.00
64610;BME280;51019;46.090;6.350;2024-03-22T07:29:55;61607.56;;;13.47;100.00
64610;BME280;51019;46.090;6.350;2024-03-22T07:32:20;61531.09;;;12.69;100.00
64610;BME280;51019;46.090;6.350;2024-03-22T07:34:49;61645.59;;;13.77;100.00
64610;BME280;51019;46.090;6.350;2024-03-22T07:37:15;61628.38;;;13.61;96.85
64610;BME280;51019;46.090;6.350;2024-03-22T07:39:42;61733.38;;;14.63;93.56
64610;BME280;51019;46.090;6.350;2024-03-22T07:42:11;61675.25;;;14.08;89.56
64610;BME280;51019;46.090;6.350;2024-03-22T07:44:38;61760.31;;;14.88;83.45
64610;BME280;51019;46.090;6.350;2024-03-22T07:47:04;61774.81;;;15.02;82.63
64610;BME280;51019;46.090;6.350;2024-03-22T07:49:32;61744.22;;;14.75;81.36
64610;BME280;51019;46.090;6.350;2024-03-22T07:52:01;61765.06;;;14.90;81.05
64610;BME280;51019;46.090;6.350;2024-03-22T07:54:28;61862.56;;;15.82;79.05
64610;BME280;51019;46.090;6.350;2024-03-22T07:56:54;61778.06;;;15.05;78.48
64610;BME280;51019;46.090;6.350;2024-03-22T07:59:21;61849.78;;;15.75;82.46
64610;BME280;51019;46.090;6.350;2024-03-22T08:01:47;61846.00;;;15.71;76.95
64610;BME280;51019;46.090;6.350;2024-03-22T08:04:14;61821.16;;;15.45;78.49
64610;BME280;51019;46.090;6.350;2024-03-22T08:06:42;61773.69;;;14.98;83.04
64610;BME280;51019;46.090;6.350;2024-03-22T08:09:11;61855.69;;;15.80;75.26
64610;BME280;51019;46.090;6.350;2024-03-22T08:11:37;61740.44;;;14.72;77.70
64610;BME280;51019;46.090;6.350;2024-03-22T08:14:04;61861.09;;;15.85;72.79
64610;BME280;51019;46.090;6.350;2024-03-22T08:16:30;61822.75;;;15.47;72.34
64610;BME280;51019;46.090;6.350;2024-03-22T08:18:57;61892.34;;;16.15;72.45
64610;BME280;51019;46.090;6.350;2024-03-22T08:21:23;61815.75;;;15.40;73.55
64610;BME280;51019;46.090;6.350;2024-03-22T08:23:51;61849.25;;;15.74;72.37
64610;BME280;51019;46.090;6.350;2024-03-22T08:26:20;61867.56;;;15.91;72.52
64610;BME280;51019;46.090;6.350;2024-03-22T08:28:47;61888.50;;;16.09;71.68
64610;BME280;51019;46.090;6.350;2024-03-22T08:31:13;61958.06;;;16.74;66.49
64610;BME280;51019;46.090;6.350;2024-03-22T08:33:42;61898.22;;;16.18;69.36
64610;BME280;51019;46.090;6.350;2024-03-22T08:36:09;61943.47;;;16.60;69.29
64610;BME280;51019;46.090;6.350;2024-03-22T08:38:37;61957.00;;;16.73;64.52
64610;BME280;51019;46.090;6.350;2024-03-22T08:41:03;61996.44;;;17.13;63.18
64610;BME280;51019;46.090;6.350;2024-03-22T08:43:33;62060.13;;;17.72;61.01
64610;BME280;51019;46.090;6.350;2024-03-22T08:45:59;62009.84;;;17.23;60.39
64610;BME280;51019;46.090;6.350;2024-03-22T08:48:25;61989.91;;;17.04;63.09
64610;BME280;51019;46.090;6.350;2024-03-22T08:50:51;61973.25;;;16.91;61.15
64610;BME280;51019;46.090;6.350;2024-03-22T08:53:18;62070.25;;;17.77;60.14
64610;BME280;51019;46.090;6.350;2024-03-22T08:55:48;62116.81;;;18.26;57.66
64610;BME280;51019;46.090;6.350;2024-03-22T08:58:15;62120.03;;;18.29;58.26
64610;BME280;51019;46.090;6.350;2024-03-22T09:00:45;62108.13;;;18.15;58.20
64610;BME280;51019;46.090;6.350;2024-03-22T09:03:12;62095.69;;;18.03;57.02
64610;BME280;51019;46.090;6.350;2024-03-22T09:05:40;62231.84;;;19.31;53.05
64610;BME280;51019;46.090;6.350;2024-03-22T09:08:07;62237.88;;;19.39;52.82
64610;BME280;51019;46.090;6.350;2024-03-22T09:10:33;62206.38;;;19.05;52.71
64610;BME280;51019;46.090;6.350;2024-03-22T09:13:00;62270.78;;;19.68;50.98
64610;BME280;51019;46.090;6.350;2024-03-22T09:15:26;62246.50;;;19.47;52.50
64610;BME280;51019;46.090;6.350;2024-03-22T09:17:55;62300.59;;;19.98;50.49
64610;BME280;51019;46.090;6.350;2024-03-22T09:20:21;62237.25;;;19.36;51.84
64610;BME280;51019;46.090;6.350;2024-03-22T09:22:48;62217.84;;;19.20;50.53
64610;BME280;51019;46.090;6.350;2024-03-22T09:25:14;62255.72;;;19.56;51.00
64610;BME280;51019;46.090;6.350;2024-03-22T09:27:41;62318.44;;;20.15;49.37
64610;BME280;51019;46.090;6.350;2024-03-22T09:30:08;62261.66;;;19.62;49.17
64610;BME280;51019;46.090;6.350;2024-03-22T09:32:36;62300.59;;;19.98;48.39
64610;BME280;51019;46.090;6.350;2024-03-22T09:35:04;62350.31;;;20.42;49.88
64610;BME280;51019;46.090;6.350;2024-03-22T09:37:31;62342.19;;;20.35;50.52
64610;BME280;51019;46.090;6.350;2024-03-22T09:39:58;62397.41;;;20.86;47.12
64610;BME280;51019;46.090;6.350;2024-03-22T09:42:25;62324.94;;;20.21;50.36
64610;BME280;51019;46.090;6.350;2024-03-22T09:44:53;62402.88;;;20.94;46.76
64610;BME280;51019;46.090;6.350;2024-03-22T09:47:20;62448.91;;;21.37;44.69
64610;BME280;51019;46.090;6.350;2024-03-22T09:49:47;62458.66;;;21.46;44.64
64610;BME280;51019;46.090;6.350;2024-03-22T09:52:19;62494.94;;;21.80;44.69
64610;BME280;51019;46.090;6.350;2024-03-22T09:54:47;62488.53;;;21.77;41.05
64610;BME280;51019;46.090;6.350;2024-03-22T09:57:15;62521.03;;;22.07;41.98
64610;BME280;51019;46.090;6.350;2024-03-22T09:59:41;62590.88;;;22.70;42.00
64610;BME280;51019;46.090;6.350;2024-03-22T10:02:11;62511.75;;;21.96;43.22
64610;BME280;51019;46.090;6.350;2024-03-22T10:04:38;62524.22;;;22.07;39.76
64610;BME280;51019;46.090;6.350;2024-03-22T10:07:06;62566.50;;;22.47;42.61
64610;BME280;51019;46.090;6.350;2024-03-22T10:09:35;62515.03;;;21.99;40.17
64610;BME280;51019;46.090;6.350;2024-03-22T10:12:06;62524.72;;;22.05;40.03
64610;BME280;51019;46.090;6.350;2024-03-22T10:14:33;62504.66;;;21.87;41.49
64610;BME280;51019;46.090;6.350;2024-03-22T10:17:02;62613.16;;;22.91;39.59
64610;BME280;51019;46.090;6.350;2024-03-22T10:19:29;62457.03;;;21.45;41.34
64610;BME280;51019;46.090;6.350;2024-03-22T10:22:01;62584.38;;;22.64;41.29
64610;BME280;51019;46.090;6.350;2024-03-22T10:24:28;62558.91;;;22.40;40.59
64610;BME280;51019;46.090;6.350;2024-03-22T10:26:58;62692.97;;;23.68;39.38
64610;BME280;51019;46.090;6.350;2024-03-22T10:29:25;62719.56;;;23.93;37.98
64610;BME280;51019;46.090;6.350;2024-03-22T10:31:55;62653.34;;;23.31;37.85
64610;BME280;51019;46.090;6.350;2024-03-22T10:34:21;62824.34;;;24.90;34.85
64610;BME280;51019;46.090;6.350;2024-03-22T10:36:49;62676.06;;;23.49;36.78
64610;BME280;51019;46.090;6.350;2024-03-22T10:39:17;62820.47;;;24.84;35.40
64610;BME280;51019;46.090;6.350;2024-03-22T10:41:47;62707.13;;;23.83;37.28
64610;BME280;51019;46.090;6.350;2024-03-22T10:44:16;62733.06;;;24.03;32.70
64610;BME280;51019;46.090;6.350;2024-03-22T10:46:45;62780.34;;;24.49;33.18
64610;BME280;51019;46.090;6.350;2024-03-22T10:49:16;62774.31;;;24.41;35.17
64610;BME280;51019;46.090;6.350;2024-03-22T10:51:48;62723.28;;;23.94;37.46
64610;BME280;51019;46.090;6.350;2024-03-22T10:54:20;62762.38;;;24.30;36.34
64610;BME280;51019;46.090;6.350;2024-03-22T10:56:48;62897.66;;;25.56;33.86
64610;BME280;51019;46.090;6.350;2024-03-22T10:59:18;62833.06;;;24.99;31.69
64610;BME280;51019;46.090;6.350;2024-03-22T11:01:48;62873.88;;;25.39;31.76
64610;BME280;51019;46.090;6.350;2024-03-22T11:04:16;62917.84;;;25.78;31.21
64610;BME280;51019;46.090;6.350;2024-03-22T11:06:48;62870.59;;;25.36;30.77
64610;BME280;51019;46.090;6.350;2024-03-22T11:09:18;62930.88;;;25.90;28.89
64610;BME280;51019;46.090;6.350;2024-03-22T11:11:52;62895.00;;;25.56;29.53
64610;BME280;51019;46.090;6.350;2024-03-22T11:14:21;62891.16;;;25.50;30.21
64610;BME280;51019;46.090;6.350;2024-03-22T11:16:51;62884.63;;;25.44;30.46
64610;BME280;51019;46.090;6.350;2024-03-22T11:19:18;62898.75;;;25.57;27.65
64610;BME280;51019;46.090;6.350;2024-03-22T11:21:46;62891.16;;;25.50;29.00
64610;BME280;51019;46.090;6.350;2024-03-22T11:24:13;62844.53;;;25.12;30.98
64610;BME280;51019;46.090;6.350;2024-03-22T11:26:40;62905.34;;;25.66;29.11
64610;BME280;51019;46.090;6.350;2024-03-22T11:29:06;62899.28;;;25.58;29.59
64610;BME280;51019;46.090;6.350;2024-03-22T11:31:44;63021.72;;;26.74;28.81
64610;BME280;51019;46.090;6.350;2024-03-22T11:34:10;62917.28;;;25.77;30.37
64610;BME280;51019;46.090;6.350;2024-03-22T11:36:38;62997.78;;;26.52;29.64
64610;BME280;51019;46.090;6.350;2024-03-22T11:39:04;62926.59;;;25.88;31.35
64610;BME280;51019;46.090;6.350;2024-03-22T11:41:33;62997.78;;;26.52;30.84
64610;BME280;51019;46.090;6.350;2024-03-22T11:44:00;63023.31;;;26.73;30.01
64610;BME280;51019;46.090;6.350;2024-03-22T11:46:28;63005.94;;;26.60;29.65
64610;BME280;51019;46.090;6.350;2024-03-22T11:48:59;63023.34;;;26.76;28.30
64610;BME280;51019;46.090;6.350;2024-03-22T11:51:27;63129.00;;;27.77;27.57
64610;BME280;51019;46.090;6.350;2024-03-22T11:53:54;63233.00;;;28.71;26.65
64610;BME280;51019;46.090;6.350;2024-03-22T11:56:24;63151.84;;;27.96;28.76
64610;BME280;51019;46.090;6.350;2024-03-22T11:58:58;63118.63;;;27.65;26.72
64610;BME280;51019;46.090;6.350;2024-03-22T12:01:27;63045.69;;;26.97;25.55
64610;BME280;51019;46.090;6.350;2024-03-22T12:03:54;63136.66;;;27.84;25.80
64610;BME280;51019;46.090;6.350;2024-03-22T12:06:28;63193.22;;;28.34;26.66
64610;BME280;51019;46.090;6.350;2024-03-22T12:08:54;63115.34;;;27.62;25.01
64610;BME280;51019;46.090;6.350;2024-03-22T12:11:23;63252.63;;;28.89;24.15
64610;BME280;51019;46.090;6.350;2024-03-22T12:13:49;63230.88;;;28.72;23.52
64610;BME280;51019;46.090;6.350;2024-03-22T12:16:16;63114.31;;;27.63;22.50
64610;BME280;51019;46.090;6.350;2024-03-22T12:18:43;63227.06;;;28.68;21.84
64610;BME280;51019;46.090;6.350;2024-03-22T12:21:18;63160.00;;;28.03;23.00
64610;BME280;51019;46.090;6.350;2024-03-22T12:23:51;63300.09;;;29.36;23.68
64610;BME280;51019;46.090;6.350;2024-03-22T12:26:19;63319.22;;;29.54;24.00
64610;BME280;51019;46.090;6.350;2024-03-22T12:28:46;63306.69;;;29.42;24.04
64610;BME280;51019;46.090;6.350;2024-03-22T12:31:13;63281.53;;;29.16;23.82
64610;BME280;51019;46.090;6.350;2024-03-22T12:33:39;63358.47;;;29.90;24.09
64610;BME280;51019;46.090;6.350;2024-03-22T12:36:06;63315.88;;;29.48;24.21
64610;BME280;51019;46.090;6.350;2024-03-22T12:38:32;63242.34;;;28.82;23.64
64610;BME280;51019;46.090;6.350;2024-03-22T12:41:01;63292.44;;;29.26;22.37
64610;BME280;51019;46.090;6.350;2024-03-22T12:43:27;63115.34;;;27.62;22.81
64610;BME280;51019;46.090;6.350;2024-03-22T12:45:54;63215.63;;;28.58;23.97
64610;BME280;51019;46.090;6.350;2024-03-22T12:48:20;63273.97;;;29.12;24.42
64610;BME280;51019;46.090;6.350;2024-03-22T12:50:49;63256.50;;;28.96;23.62
64610;BME280;51019;46.090;6.350;2024-03-22T12:53:16;63361.19;;;29.93;22.34
64610;BME280;51019;46.090;6.350;2024-03-22T12:55:46;63349.69;;;29.80;22.39
64610;BME280;51019;46.090;6.350;2024-03-22T12:58:14;63296.34;;;29.35;23.96
64610;BME280;51019;46.090;6.350;2024-03-22T13:00:43;63293.56;;;29.30;25.08